Latest Weather Observations for Moree

IDN60801

Issued at 10:32 pm EST Saturday 30 May 2015 (issued every 30 minutes, with the page automatically refreshed every 10 minutes)

About weather observations | Map of weather stations | Latest weather observations for NSW | Other Formats
Station Details ID: 053115 Name: MOREE AERO Lat: -29.49 Lon: 149.85 Height: 213.0 m
Data from the previous 72 hours. | See also: Recent months at Moree
Date/Time
EST
Temp
°C
App
Temp
°C
Dew
Point
Rel
Hum
%
Delta-T
°C
Wind Press
QNH
hPa
Press
MSL
hPa
Rain
since 9 am
mm
Dir
 
Spd
km/h
Gust
km/h
Spd
kts
Gust
kts
30/10:30pm 15.5 14.4 14.2 92 0.7 SSE 13 15 7 8 1019.9 1019.7 0.0
30/10:00pm 15.7 15.0 14.4 92 0.7 SSE 11 15 6 8 1020.4 1020.2 0.0
30/09:30pm 15.8 15.2 14.5 92 0.7 S 11 15 6 8 1020.7 1020.5 0.0
30/09:00pm 15.9 15.6 14.4 91 0.9 SSE 9 11 5 6 1020.6 1020.4 0.0
30/08:30pm 16.0 15.7 14.4 90 0.9 SSE 9 11 5 6 1020.6 1020.4 0.0
30/08:00pm 16.2 15.7 13.9 86 1.3 S 9 9 5 5 1020.9 1020.7 0.0
30/07:30pm 16.4 16.2 13.7 84 1.5 S 7 9 4 5 1020.9 1020.7 0.0
30/07:00pm 16.6 16.0 13.5 82 1.8 S 9 9 5 5 1020.6 1020.4 0.0
30/06:30pm 16.7 16.1 13.6 82 1.8 SSE 9 11 5 6 1020.4 1020.2 0.0
30/06:00pm 16.9 16.3 13.4 80 2.0 SSE 9 11 5 6 1020.1 1019.9 0.0
30/05:30pm 17.3 15.6 13.6 79 2.1 S 15 17 8 9 1020.2 1020.0 0.0
30/05:00pm 17.8 16.6 13.9 78 2.2 S 13 15 7 8 1019.7 1019.5 0.0
30/04:30pm 18.7 17.3 13.3 71 3.1 S 13 15 7 8 1019.6 1019.4 0.0
30/04:00pm 19.0 17.2 13.4 70 3.2 S 15 19 8 10 1019.7 1019.5 0.0
30/03:30pm 19.4 17.1 12.9 66 3.7 SSW 17 20 9 11 1019.8 1019.6 0.0
30/03:00pm 20.1 18.1 12.8 63 4.2 SSW 15 17 8 9 1019.8 1019.6 0.0
30/02:30pm 20.8 19.9 12.5 59 4.7 SW 9 17 5 9 1020.0 1019.8 0.0
30/02:00pm 20.4 19.9 12.1 59 4.7 W 6 13 3 7 1020.0 1019.8 0.0
30/01:30pm 20.3 19.9 12.3 60 4.5 N 6 11 3 6 1020.1 1019.9 0.0
30/01:00pm 20.5 20.7 13.2 63 4.2 N 4 9 2 5 1020.3 1020.1 0.0
30/12:30pm 20.1 21.0 12.8 63 4.2 CALM 0 0 0 0 1020.7 1020.5 0.0
30/12:00pm 19.7 20.5 13.6 68 3.5 N 2 7 1 4 1021.2 1021.0 0.0
30/11:30am 19.1 18.9 13.7 71 3.1 N 7 9 4 5 1022.0 1021.7 0.0
30/11:00am 18.9 17.9 13.5 71 3.1 NNE 11 13 6 7 1022.4 1022.1 0.0
30/10:30am 18.7 17.8 13.8 73 2.8 NNE 11 13 6 7 1022.6 1022.3 0.0
30/10:00am 17.6 16.8 14.1 80 2.0 NNE 11 15 6 8 1022.9 1022.7 0.0
30/09:30am 16.6 15.7 13.7 83 1.7 NNE 11 13 6 7 1023.5 1023.3 0.0
30/09:00am 16.2 16.9 13.5 84 1.5 N 2 7 1 4 1023.7 1023.5 0.0
30/08:30am 15.4 16.5 13.4 88 1.1 CALM 0 0 0 0 1023.6 1023.4 0.0
30/08:00am 14.8 15.8 13.2 90 0.9 CALM 0 0 0 0 1023.4 1023.2 0.0
30/07:30am 14.5 15.5 13.2 92 0.7 CALM 0 0 0 0 1023.4 1023.2 0.0
30/07:00am 14.3 15.2 13.0 92 0.7 CALM 0 0 0 0 1023.0 1022.8 0.0
30/06:30am 14.2 13.4 12.9 92 0.7 S 9 11 5 6 1022.5 1022.2 0.0
30/06:00am 14.2 13.4 12.8 91 0.8 SW 9 11 5 6 1022.4 1022.1 0.0
30/05:30am 14.2 15.1 12.8 91 0.8 CALM 0 0 0 0 1022.3 1022.0 0.0
30/05:00am 14.2 15.1 12.8 91 0.8 CALM 0 0 0 0 1022.0 1021.7 0.0
30/04:30am 13.9 14.7 12.5 91 0.8 CALM 0 0 0 0 1021.9 1021.6 0.0
30/04:00am 14.1 14.9 12.5 90 0.9 CALM 0 0 0 0 1021.9 1021.6 0.0
30/03:30am 14.2 15.0 12.6 90 0.9 CALM 0 0 0 0 1022.0 1021.7 0.0
30/03:00am 14.3 15.1 12.7 90 0.9 CALM 0 0 0 0 1021.8 1021.5 0.0
30/02:30am 14.3 13.4 12.5 89 1.0 SW 9 9 5 5 1022.1 1021.8 0.0
30/02:00am 14.5 14.0 12.5 88 1.1 SW 7 9 4 5 1022.2 1021.9 0.0
30/01:30am 14.6 14.1 12.5 87 1.2 WSW 7 9 4 5 1022.6 1022.3 0.0
30/01:00am 14.7 14.2 12.6 87 1.2 WSW 7 7 4 4 1022.6 1022.3 0.0
30/12:30am 14.8 13.9 12.5 86 1.3 W 9 11 5 6 1022.8 1022.5 0.0
30/12:00am 14.8 14.3 12.5 86 1.3 W 7 9 4 5 1022.9 1022.7 0.0
 
Date/Time
EST
Temp
°C
App
Temp
°C
Dew
Point
Rel
Hum
%
Delta-T
°C
Wind Press
QNH
hPa
Press
MSL
hPa
Rain
since 9 am
mm
Dir
 
Spd
km/h
Gust
km/h
Spd
kts
Gust
kts
29/11:30pm 15.1 14.1 12.4 84 1.5 WSW 9 11 5 6 1023.0 1022.8 0.0
29/11:00pm 15.5 15.0 12.6 83 1.6 SW 7 7 4 4 1023.4 1023.2 0.0
29/10:30pm 15.5 14.6 12.6 83 1.6 SSW 9 11 5 6 1023.6 1023.4 0.0
29/10:00pm 15.9 14.6 12.6 81 1.8 SW 11 13 6 7 1023.7 1023.5 0.0
29/09:30pm 16.1 14.7 12.3 78 2.1 SSW 11 13 6 7 1023.5 1023.3 0.0
29/09:00pm 16.6 14.8 12.2 75 2.4 SSW 13 17 7 9 1023.3 1023.1 0.0
29/08:30pm 16.9 14.9 11.6 71 2.9 SW 13 15 7 8 1023.3 1023.1 0.0
29/08:00pm 17.9 17.0 11.2 65 3.7 WSW 7 9 4 5 1023.1 1022.9 0.0
29/07:30pm 18.0 18.5 11.6 66 3.5 CALM 0 0 0 0 1022.8 1022.5 0.0
29/07:00pm 17.2 17.9 12.1 72 2.8 CALM 0 0 0 0 1022.7 1022.4 0.0
29/06:30pm 18.6 19.2 11.9 65 3.7 CALM 0 0 0 0 1022.5 1022.2 0.0
29/06:00pm 19.0 18.3 12.0 64 3.9 SSW 7 9 4 5 1022.2 1021.9 0.0
29/05:30pm 20.0 19.8 11.7 59 4.6 SSW 4 9 2 5 1022.1 1021.8 0.0
29/05:00pm 20.7 21.5 12.7 60 4.6 CALM 0 0 0 0 1021.8 1021.5 0.0
29/04:30pm 21.5 21.6 12.6 57 5.1 NE 4 7 2 4 1021.7 1021.4 0.0
29/04:00pm 22.3 23.0 12.3 53 5.7 CALM 0 0 0 0 1021.3 1021.1 0.0
29/03:30pm 22.5 22.5 12.4 52 5.8 WNW 4 9 2 5 1021.3 1021.1 0.0
29/03:00pm 22.1 22.5 12.4 54 5.5 WNW 2 9 1 5 1021.3 1021.1 0.0
29/02:30pm 22.3 21.6 12.0 52 5.9 WNW 7 13 4 7 1021.6 1021.3 0.0
29/02:00pm 21.9 22.7 12.7 56 5.3 CALM 0 4 0 2 1021.6 1021.3 0.0
29/01:30pm 21.6 21.1 12.5 56 5.2 NNW 7 11 4 6 1022.0 1021.7 0.0
29/01:00pm 21.6 20.8 13.0 58 4.9 N 9 13 5 7 1022.0 1021.7 0.0
29/12:30pm 21.2 20.6 12.3 57 5.1 NNW 7 13 4 7 1022.2 1021.9 0.0
29/12:00pm 20.3 19.0 12.5 61 4.4 NNW 11 13 6 7 1022.6 1022.3 0.0
29/11:30am 19.9 18.1 12.2 61 4.3 NNW 13 15 7 8 1023.1 1022.9 0.0
29/11:00am 19.7 18.0 12.5 63 4.1 NNW 13 17 7 9 1023.4 1023.2 0.0
29/10:30am 19.5 17.4 12.3 63 4.1 NNW 15 19 8 10 1023.8 1023.6 0.0
29/10:00am 18.9 16.7 12.2 65 3.7 N 15 20 8 11 1024.1 1023.9 0.0
29/09:30am 17.9 16.1 12.1 69 3.2 NNE 13 19 7 10 1024.1 1023.9 0.0
29/09:00am 17.0 14.7 11.9 72 2.8 NNE 15 19 8 10 1024.2 1024.0 0.0
29/08:30am 16.5 13.4 11.6 73 2.7 NNE 19 24 10 13 1024.2 1024.0 0.0
29/08:00am 15.9 13.1 11.3 74 2.5 NNE 17 19 9 10 1023.7 1023.5 0.0
29/07:30am 15.6 12.7 11.0 74 2.5 NE 17 19 9 10 1023.3 1023.1 0.0
29/07:00am 15.8 12.8 10.8 72 2.7 NE 17 20 9 11 1022.9 1022.7 0.0
29/06:30am 15.8 13.2 10.6 71 2.8 NE 15 17 8 9 1022.8 1022.5 0.0
29/06:00am 15.7 13.3 10.2 70 2.9 NE 13 17 7 9 1022.3 1022.0 0.0
29/05:30am 15.8 13.8 10.3 70 2.9 NNE 11 13 6 7 1022.2 1021.9 0.0
29/05:00am 15.5 13.5 10.3 71 2.8 NE 11 13 6 7 1022.0 1021.7 0.0
29/04:30am 15.3 13.0 10.3 72 2.7 NE 13 17 7 9 1021.8 1021.5 0.0
29/04:00am 15.2 12.5 10.2 72 2.6 NE 15 19 8 10 1021.7 1021.4 0.0
29/03:30am 15.3 13.0 10.3 72 2.7 NE 13 15 7 8 1021.7 1021.4 0.0
29/03:00am 14.7 12.4 10.3 75 2.3 NE 13 15 7 8 1022.2 1021.9 0.0
29/02:30am 14.4 11.7 10.4 77 2.1 ENE 15 19 8 10 1022.3 1022.0 0.0
29/02:00am 14.2 11.5 10.4 78 2.0 ENE 15 17 8 9 1022.4 1022.1 0.0
29/01:30am 14.5 12.2 10.5 77 2.1 ENE 13 15 7 8 1022.8 1022.5 0.0
29/01:00am 14.4 12.4 10.2 76 2.2 ENE 11 15 6 8 1022.7 1022.4 0.0
29/12:30am 14.7 12.0 10.3 75 2.3 ENE 15 17 8 9 1022.7 1022.4 0.0
29/12:00am 14.5 12.2 10.3 76 2.2 ENE 13 15 7 8 1023.3 1023.1 0.0
 
Date/Time
EST
Temp
°C
App
Temp
°C
Dew
Point
Rel
Hum
%
Delta-T
°C
Wind Press
QNH
hPa
Press
MSL
hPa
Rain
since 9 am
mm
Dir
 
Spd
km/h
Gust
km/h
Spd
kts
Gust
kts
28/11:30pm 14.6 12.6 10.2 75 2.3 ENE 11 15 6 8 1023.1 1022.9 0.0
28/11:00pm 14.6 12.2 10.0 74 2.4 ENE 13 15 7 8 1023.4 1023.2 0.0
28/10:30pm 14.8 12.3 9.8 72 2.6 ENE 13 15 7 8 1023.2 1023.0 0.0
28/10:00pm 15.2 12.3 9.6 69 2.9 ENE 15 22 8 12 1023.0 1022.8 0.0
28/09:30pm 15.5 13.0 9.6 68 3.1 E 13 17 7 9 1023.2 1023.0 0.0
28/09:00pm 15.4 12.4 9.3 67 3.2 E 15 15 8 8 1023.2 1023.0 0.0
28/08:30pm 15.7 13.0 9.1 65 3.4 E 13 15 7 8 1023.2 1023.0 0.0
28/08:00pm 16.1 13.5 9.5 65 3.5 E 13 15 7 8 1023.3 1023.1 0.0
28/07:30pm 16.7 14.1 9.4 62 3.8 E 13 15 7 8 1023.1 1022.9 0.0
28/07:00pm 16.3 14.2 9.7 65 3.5 ENE 11 15 6 8 1022.8 1022.5 0.0
28/06:30pm 17.2 15.0 9.4 60 4.1 E 11 13 6 7 1022.6 1022.3 0.0
28/06:00pm 17.7 15.9 9.3 58 4.4 E 9 11 5 6 1022.3 1022.0 0.0
28/05:30pm 17.9 17.7 9.0 56 4.7 CALM 0 0 0 0 1022.3 1022.0 0.0
28/05:00pm 19.5 19.2 8.8 50 5.6 CALM 0 0 0 0 1022.1 1021.8 0.0
28/04:30pm 20.8 19.2 8.8 46 6.4 ENE 7 9 4 5 1021.9 1021.6 0.0
28/04:00pm 21.9 20.2 7.7 40 7.4 N 6 9 3 5 1021.8 1021.5 0.0
28/03:30pm 22.5 20.5 8.6 41 7.5 NNE 9 13 5 7 1021.8 1021.5 0.0
28/03:00pm 22.3 20.2 8.1 40 7.5 NE 9 17 5 9 1021.7 1021.4 0.0
28/02:30pm 22.4 20.4 8.5 41 7.4 NNE 9 13 5 7 1021.9 1021.6 0.0
28/02:00pm 21.7 19.3 8.6 43 7.0 N 11 17 6 9 1021.9 1021.6 0.0
28/01:30pm 21.3 18.7 9.2 46 6.5 N 13 19 7 10 1022.5 1022.2 0.0
28/01:00pm 21.8 19.2 9.3 45 6.7 N 13 20 7 11 1022.7 1022.4 0.0
28/12:30pm 22.2 19.4 10.0 46 6.7 N 15 19 8 10 1022.9 1022.7 0.0
28/12:00pm 20.9 18.3 9.2 47 6.3 N 13 20 7 11 1023.5 1023.3 0.0
28/11:30am 20.9 18.0 9.5 48 6.2 N 15 22 8 12 1024.3 1024.1 0.0
28/11:00am 20.3 18.2 11.0 55 5.1 NNE 13 17 7 9 1024.8 1024.6 0.0
28/10:30am 19.0 16.8 10.8 59 4.5 NNE 13 17 7 9 1025.2 1025.0 0.0
28/10:00am 17.5 14.6 10.9 65 3.6 NNE 17 19 9 10 1025.2 1025.0 0.0
28/09:30am 16.6 13.6 10.5 67 3.3 NNE 17 22 9 12 1025.4 1025.2 0.0
28/09:00am 15.3 12.0 9.7 69 2.9 NE 17 20 9 11 1025.3 1025.1 0.0
28/08:30am 14.7 11.7 9.1 69 2.9 ENE 15 19 8 10 1025.0 1024.8 0.0
28/08:00am 12.7 9.8 9.5 81 1.6 ENE 15 19 8 10 1024.5 1024.3 0.0
28/07:30am 11.8 8.6 8.6 81 1.6 NE 15 17 8 9 1024.3 1024.1 0.0
28/07:00am 11.9 8.8 8.9 82 1.5 ENE 15 19 8 10 1024.2 1024.0 0.0
28/06:30am 11.2 7.1 8.6 84 1.3 ENE 20 28 11 15 1023.9 1023.7 0.0
28/06:00am 11.0 7.5 8.6 85 1.2 E 17 22 9 12 1023.7 1023.5 0.0
28/05:30am 10.3 6.6 8.1 86 1.1 E 17 22 9 12 1023.2 1023.0 0.0
28/05:00am 10.9 7.0 8.5 85 1.2 ENE 19 26 10 14 1023.0 1022.8 0.0
28/04:30am 11.1 7.9 8.5 84 1.3 E 15 19 8 10 1023.0 1022.8 0.0
28/04:00am 11.1 7.9 8.5 84 1.3 E 15 19 8 10 1022.8 1022.5 0.0
28/03:30am 11.8 8.4 9.0 83 1.4 E 17 19 9 10 1022.7 1022.4 0.0
28/03:00am 11.8 8.4 9.2 84 1.3 E 17 20 9 11 1022.7 1022.4 0.0
28/02:30am 11.8 8.4 9.0 83 1.4 ENE 17 20 9 11 1023.0 1022.8 0.0
28/02:00am 12.0 9.7 9.0 82 1.5 E 11 13 6 7 1023.5 1023.3 0.0
28/01:30am 11.9 8.9 9.1 83 1.4 ENE 15 19 8 10 1023.1 1022.9 0.0
28/01:00am 11.7 9.0 8.9 83 1.4 E 13 13 7 7 1023.3 1023.1 0.0
28/12:30am 11.9 10.0 9.1 83 1.4 E 9 9 5 5 1023.7 1023.5 0.0
28/12:00am 10.9 8.8 8.3 84 1.3 E 9 11 5 6 1023.6 1023.4 0.0
 
Date/Time
EST
Temp
°C
App
Temp
°C
Dew
Point
Rel
Hum
%
Delta-T
°C
Wind Press
QNH
hPa
Press
MSL
hPa
Rain
since 9 am
mm
Dir
 
Spd
km/h
Gust
km/h
Spd
kts
Gust
kts
27/11:30pm 10.9 9.3 8.0 82 1.4 ESE 6 13 3 7 1023.2 1023.0 0.0
27/11:00pm 11.0 8.4 7.9 81 1.5 SSE 11 13 6 7 1023.7 1023.5 0.0

Other Formats:

Comma delimited format used in spreadsheet applications
http://www.bom.gov.au/fwo/IDN60801/IDN60801.95527.axf

JavaScript Object Notation format (JSON) in row-major order
http://www.bom.gov.au/fwo/IDN60801/IDN60801.95527.json